Time;durP1;ratioP1;P1;durP2;ratioP2;P2;SDS_P1;SDS_P2;PMS_P1;PMS_P2;Temp;Humidity;BMP_temperature;BMP_pressure;BME280_temperature;BME280_humidity;BME280_pressure;Samples;Min_cycle;Max_cycle;Signal;HPM_P1;HPM_P2
2023/11/28 00:02:05;;;;;;;6.23;2.13;;;21.60;81.60;;;;;;4995058;28;20182;-70
2023/11/28 00:04:32;;;;;;;8.43;2.57;;;21.60;81.60;;;;;;4994890;28;20185;-72
2023/11/28 00:07:00;;;;;;;12.03;2.77;;;21.70;81.50;;;;;;4977328;28;20664;-70
2023/11/28 00:09:27;;;;;;;18.17;6.17;;;21.60;80.90;;;;;;4994721;28;20592;-72
2023/11/28 00:11:54;;;;;;;11.53;3.67;;;21.70;81.00;;;;;;4994983;28;20185;-71
2023/11/28 00:14:21;;;;;;;24.03;7.20;;;21.70;81.00;;;;;;4994170;28;20170;-72
2023/11/28 00:16:49;;;;;;;23.10;8.47;;;21.70;81.30;;;;;;4994135;28;20185;-70
2023/11/28 00:19:17;;;;;;;30.60;10.13;;;21.60;81.70;;;;;;4994136;28;20177;-73
2023/11/28 00:21:44;;;;;;;12.97;3.50;;;21.70;81.90;;;;;;4982448;28;20245;-71
2023/11/28 00:24:11;;;;;;;13.23;3.17;;;21.70;81.60;;;;;;4994229;28;20287;-70
2023/11/28 00:26:39;;;;;;;8.77;3.10;;;21.80;82.20;;;;;;4993674;28;20225;-70
2023/11/28 00:29:06;;;;;;;12.73;2.90;;;21.80;83.30;;;;;;4993775;28;20528;-71
2023/11/28 00:31:33;;;;;;;17.30;3.40;;;21.70;83.40;;;;;;4994501;28;20182;-67
2023/11/28 00:34:01;;;;;;;12.23;2.93;;;21.60;83.90;;;;;;4993360;28;20679;-70
2023/11/28 00:36:28;;;;;;;9.43;2.63;;;21.60;84.50;;;;;;4993879;28;20189;-67
2023/11/28 00:38:56;;;;;;;9.27;2.63;;;21.40;84.40;;;;;;4994108;28;20178;-70
2023/11/28 00:41:25;;;;;;;12.23;3.00;;;21.20;85.00;;;;;;4982430;28;20202;-68
2023/11/28 00:43:54;;;;;;;12.60;2.83;;;21.00;85.60;;;;;;4987740;28;20174;-70
2023/11/28 00:46:22;;;;;;;10.57;2.73;;;21.10;86.00;;;;;;4974806;28;20197;-68
2023/11/28 00:48:49;;;;;;;17.97;3.17;;;21.10;86.20;;;;;;4983862;28;20197;-70
2023/11/28 00:51:17;;;;;;;10.87;2.83;;;21.10;85.80;;;;;;4994454;28;20517;-70
2023/11/28 00:53:44;;;;;;;9.90;2.70;;;21.10;85.90;;;;;;4994012;28;20186;-67
2023/11/28 00:56:19;;;;;;;12.93;3.03;;;21.10;86.10;;;;;;4994086;28;20204;-67
2023/11/28 00:58:48;;;;;;;14.07;3.70;;;21.10;86.80;;;;;;4993890;28;20268;-67
2023/11/28 01:01:16;;;;;;;13.47;3.63;;;21.10;87.00;;;;;;4980265;28;20634;-69
2023/11/28 01:03:44;;;;;;;12.33;3.20;;;21.00;87.00;;;;;;4986726;28;20715;-71
2023/11/28 01:06:11;;;;;;;10.57;2.97;;;21.00;86.90;;;;;;4991586;28;20186;-68
2023/11/28 01:08:38;;;;;;;15.27;3.77;;;21.00;87.60;;;;;;4986236;28;20190;-67
2023/11/28 01:11:06;;;;;;;13.07;3.77;;;21.00;87.70;;;;;;4976151;28;20564;-72
2023/11/28 01:13:33;;;;;;;9.90;3.43;;;21.00;88.00;;;;;;4989066;28;20183;-72
2023/11/28 01:16:01;;;;;;;15.87;4.07;;;20.90;87.80;;;;;;4981462;28;20186;-70
2023/11/28 01:18:28;;;;;;;12.77;4.10;;;20.90;88.00;;;;;;4982298;28;20625;-71
2023/11/28 01:20:56;;;;;;;10.70;4.00;;;20.90;87.90;;;;;;4991753;28;20273;-69
2023/11/28 01:23:23;;;;;;;11.23;4.40;;;20.80;88.10;;;;;;4993145;28;20186;-71
2023/11/28 01:25:50;;;;;;;13.80;4.67;;;20.80;88.60;;;;;;4980879;28;20325;-70
2023/11/28 01:28:18;;;;;;;17.93;5.13;;;20.70;89.30;;;;;;4985889;28;20763;-70
2023/11/28 01:30:45;;;;;;;13.77;5.57;;;20.70;89.50;;;;;;4990111;28;20181;-72
2023/11/28 01:33:12;;;;;;;17.07;6.53;;;20.80;89.80;;;;;;4993395;28;20204;-69
2023/11/28 01:35:40;;;;;;;15.40;5.57;;;20.80;90.20;;;;;;4993282;28;20181;-71
2023/11/28 01:38:07;;;;;;;15.90;6.37;;;20.80;90.10;;;;;;4978763;28;20186;-69
2023/11/28 01:40:35;;;;;;;16.27;5.20;;;20.80;90.10;;;;;;4993098;28;20277;-68
2023/11/28 01:43:02;;;;;;;14.90;5.40;;;20.50;89.60;;;;;;4992041;28;20255;-69
2023/11/28 01:45:29;;;;;;;18.30;6.20;;;20.60;90.10;;;;;;4989337;28;20197;-69
2023/11/28 01:47:57;;;;;;;16.00;6.00;;;20.60;90.00;;;;;;4991887;28;20260;-68
2023/11/28 01:50:25;;;;;;;20.57;6.13;;;20.70;90.00;;;;;;4989789;28;20189;-69
2023/11/28 01:52:53;;;;;;;12.20;5.07;;;20.60;89.60;;;;;;4990648;28;20641;-68
2023/11/28 01:55:20;;;;;;;12.57;5.47;;;20.60;89.60;;;;;;4990513;28;20182;-70
2023/11/28 01:57:48;;;;;;;16.43;5.83;;;20.60;89.60;;;;;;4987846;28;20185;-71
2023/11/28 02:00:17;;;;;;;19.37;6.47;;;20.60;89.30;;;;;;4989753;28;20197;-71
2023/11/28 02:02:44;;;;;;;16.13;6.37;;;20.60;89.80;;;;;;4987373;28;20260;-69
2023/11/28 02:05:12;;;;;;;16.20;7.43;;;20.80;90.00;;;;;;4991045;28;20645;-67
2023/11/28 02:07:42;;;;;;;17.50;5.90;;;20.80;89.60;;;;;;4991551;28;20628;-68
2023/11/28 02:10:11;;;;;;;20.33;6.77;;;20.80;89.60;;;;;;4990813;28;20196;-67
2023/11/28 02:12:39;;;;;;;22.23;8.33;;;20.80;90.10;;;;;;4990610;28;20192;-68
2023/11/28 02:15:07;;;;;;;16.30;6.77;;;20.90;89.90;;;;;;4991982;28;20197;-68
2023/11/28 02:17:35;;;;;;;18.63;7.43;;;20.90;90.00;;;;;;4992509;28;20557;-71
2023/11/28 02:20:03;;;;;;;15.60;8.10;;;21.00;89.70;;;;;;4990104;28;20186;-69
2023/11/28 02:22:31;;;;;;;17.93;6.47;;;20.80;89.50;;;;;;4989404;28;20208;-68
2023/11/28 02:25:00;;;;;;;17.17;7.30;;;20.90;89.80;;;;;;4984383;28;20276;-70
2023/11/28 02:27:28;;;;;;;13.97;6.83;;;20.80;89.60;;;;;;4990833;28;20225;-71
2023/11/28 02:29:55;;;;;;;27.93;13.17;;;20.80;89.80;;;;;;4986558;28;20175;-68
2023/11/28 02:32:22;;;;;;;17.07;7.60;;;20.80;89.90;;;;;;4971921;28;20182;-71
2023/11/28 02:34:50;;;;;;;22.87;12.10;;;20.70;89.90;;;;;;4987809;28;20652;-69
2023/11/28 02:37:17;;;;;;;16.90;9.73;;;20.80;90.30;;;;;;4990544;28;20260;-70
2023/11/28 02:39:44;;;;;;;19.13;6.87;;;20.80;90.10;;;;;;4993764;28;20182;-70
2023/11/28 02:42:11;;;;;;;19.20;7.83;;;20.80;90.10;;;;;;4995304;28;20187;-71
2023/11/28 02:51:53;;;;;;;20.17;7.83;;;20.70;90.10;;;;;;4988559;28;20667;-69
2023/11/28 02:54:21;;;;;;;21.00;8.40;;;20.80;90.40;;;;;;4991825;28;20170;-69
2023/11/28 02:56:48;;;;;;;17.73;7.90;;;20.80;90.40;;;;;;4994171;28;20250;-66
2023/11/28 02:59:16;;;;;;;17.30;6.77;;;20.80;90.20;;;;;;4991713;28;20858;-69
2023/11/28 03:01:43;;;;;;;18.73;7.93;;;20.70;90.30;;;;;;4995046;28;20240;-69
2023/11/28 03:04:10;;;;;;;18.40;7.13;;;20.80;90.20;;;;;;4994566;28;20192;-67
2023/11/28 03:06:38;;;;;;;18.37;7.30;;;21.00;90.00;;;;;;4993347;28;21134;-69
2023/11/28 03:09:05;;;;;;;16.03;5.57;;;21.20;89.50;;;;;;4994712;28;20197;-69
2023/11/28 03:11:32;;;;;;;12.43;5.27;;;21.30;89.00;;;;;;4993860;28;20190;-68
2023/11/28 03:13:59;;;;;;;12.17;4.70;;;21.20;87.80;;;;;;4988530;28;20245;-65
2023/11/28 03:16:27;;;;;;;9.23;4.30;;;21.30;87.50;;;;;;4994415;28;20182;-68
2023/11/28 03:18:54;;;;;;;12.33;4.37;;;21.40;87.50;;;;;;4986513;28;20182;-69
2023/11/28 03:21:22;;;;;;;13.97;3.77;;;21.50;86.70;;;;;;4995231;28;20178;-67
2023/11/28 03:23:52;;;;;;;18.47;4.27;;;21.50;86.60;;;;;;4993393;28;20205;-67
2023/11/28 03:26:20;;;;;;;13.23;3.90;;;21.50;86.20;;;;;;4994787;28;20700;-69
2023/11/28 03:28:47;;;;;;;14.40;3.67;;;21.50;85.60;;;;;;4993863;28;20281;-66
2023/11/28 03:31:14;;;;;;;16.47;3.87;;;21.50;85.90;;;;;;4994298;28;20229;-64
2023/11/28 03:33:42;;;;;;;11.70;3.77;;;21.40;85.50;;;;;;4994471;28;20202;-68
2023/11/28 03:36:16;;;;;;;17.67;4.10;;;21.40;85.70;;;;;;4994390;28;20253;-68
2023/11/28 03:38:48;;;;;;;15.03;4.80;;;21.40;86.10;;;;;;4994125;28;20592;-68
2023/11/28 03:41:16;;;;;;;10.17;3.47;;;21.30;85.80;;;;;;4994625;28;20200;-65
2023/11/28 03:43:43;;;;;;;10.70;3.87;;;21.50;86.50;;;;;;4993260;28;20280;-71
2023/11/28 03:46:10;;;;;;;13.97;4.40;;;21.60;86.00;;;;;;4991309;28;20196;-65
2023/11/28 03:48:38;;;;;;;10.33;4.10;;;21.50;85.50;;;;;;4991658;28;20704;-70
2023/11/28 03:51:05;;;;;;;18.23;3.83;;;21.70;85.50;;;;;;4993250;28;20552;-67
2023/11/28 03:53:33;;;;;;;16.07;3.60;;;21.70;85.50;;;;;;4994319;28;20197;-71
2023/11/28 03:56:06;;;;;;;12.03;3.70;;;21.60;85.20;;;;;;4990161;28;20212;-67
2023/11/28 03:58:34;;;;;;;11.60;3.57;;;21.50;85.00;;;;;;4984972;28;20215;-68
2023/11/28 04:01:01;;;;;;;11.57;3.67;;;21.40;85.20;;;;;;4964909;28;20175;-68
2023/11/28 04:03:29;;;;;;;12.63;3.33;;;21.40;84.70;;;;;;4993598;28;20666;-69
2023/11/28 04:05:56;;;;;;;14.77;3.93;;;21.50;85.10;;;;;;4992534;28;20197;-64
2023/11/28 04:08:24;;;;;;;12.80;3.70;;;21.50;84.60;;;;;;4985481;28;20251;-71
2023/11/28 04:10:52;;;;;;;12.27;3.60;;;21.50;85.00;;;;;;4993136;28;20265;-68
2023/11/28 04:13:19;;;;;;;13.40;3.20;;;21.60;84.90;;;;;;4991118;28;20523;-69
2023/11/28 04:15:46;;;;;;;13.77;3.30;;;21.40;85.10;;;;;;4993847;28;20664;-65
2023/11/28 04:18:15;;;;;;;12.80;3.73;;;21.50;85.30;;;;;;4992014;28;20178;-71
2023/11/28 04:20:42;;;;;;;14.90;3.63;;;21.40;85.70;;;;;;4991912;28;20190;-70
2023/11/28 04:23:10;;;;;;;14.33;3.57;;;21.30;85.20;;;;;;4989953;28;20228;-67
2023/11/28 04:25:37;;;;;;;18.00;3.90;;;21.30;85.70;;;;;;4988207;28;20375;-69
2023/11/28 04:28:04;;;;;;;14.10;4.30;;;21.20;86.20;;;;;;4987648;28;20221;-67
2023/11/28 04:30:32;;;;;;;14.07;3.90;;;21.10;86.50;;;;;;4989198;28;20182;-70
2023/11/28 04:33:00;;;;;;;14.63;4.13;;;21.20;86.80;;;;;;4988774;28;20326;-67
2023/11/28 04:35:27;;;;;;;15.37;4.13;;;21.10;87.10;;;;;;4989099;28;20190;-65
2023/11/28 04:37:54;;;;;;;17.73;4.70;;;21.00;87.00;;;;;;4994375;28;20202;-68
2023/11/28 04:40:22;;;;;;;14.00;4.13;;;21.00;87.10;;;;;;4992386;28;20196;-67
2023/11/28 04:42:49;;;;;;;10.17;4.47;;;20.90;87.30;;;;;;4993596;28;20181;-67
2023/11/28 04:45:17;;;;;;;18.10;4.00;;;20.90;87.20;;;;;;4993501;28;20210;-66
2023/11/28 04:47:44;;;;;;;17.00;4.40;;;20.90;87.50;;;;;;4979085;28;20260;-66
2023/11/28 04:50:12;;;;;;;14.83;5.27;;;20.90;87.30;;;;;;4981887;28;20181;-70
2023/11/28 04:52:39;;;;;;;16.07;5.30;;;21.00;87.60;;;;;;4990258;28;20273;-71
2023/11/28 04:55:07;;;;;;;19.50;5.30;;;21.00;87.80;;;;;;4989933;28;20358;-68
2023/11/28 04:57:34;;;;;;;14.50;5.23;;;20.90;88.30;;;;;;4993672;28;20190;-69
2023/11/28 05:00:08;;;;;;;13.70;5.47;;;20.80;88.80;;;;;;4991615;28;20268;-66
2023/11/28 05:02:36;;;;;;;15.40;6.53;;;20.80;89.20;;;;;;4975602;28;20217;-68
2023/11/28 05:05:05;;;;;;;17.53;6.20;;;20.80;89.50;;;;;;4992517;28;20178;-71
2023/11/28 05:07:33;;;;;;;17.07;6.90;;;20.80;89.70;;;;;;4992970;28;20262;-68
2023/11/28 05:10:00;;;;;;;21.93;7.00;;;20.80;90.00;;;;;;4993442;28;20186;-67
2023/11/28 05:12:29;;;;;;;14.30;5.90;;;20.80;90.20;;;;;;4993175;28;20190;-67
2023/11/28 05:14:56;;;;;;;14.90;7.50;;;20.80;90.20;;;;;;4986695;28;20187;-69
2023/11/28 05:17:23;;;;;;;14.67;7.27;;;20.70;90.30;;;;;;4988575;28;20719;-70
2023/11/28 05:19:51;;;;;;;16.37;7.17;;;20.70;90.40;;;;;;4988051;28;20198;-67
2023/11/28 05:22:18;;;;;;;18.33;7.13;;;20.60;90.20;;;;;;4992057;28;20194;-68
2023/11/28 05:24:45;;;;;;;14.47;6.80;;;20.60;90.30;;;;;;4992263;28;20232;-66
2023/11/28 05:27:13;;;;;;;15.63;7.20;;;20.60;90.40;;;;;;4991437;28;20225;-66
2023/11/28 05:29:40;;;;;;;16.83;7.93;;;20.60;90.40;;;;;;4991173;28;20557;-67
2023/11/28 05:32:07;;;;;;;23.47;7.70;;;20.70;90.50;;;;;;4992369;28;20267;-68
2023/11/28 05:34:35;;;;;;;28.33;8.43;;;20.70;90.30;;;;;;4992212;28;20551;-67
2023/11/28 05:37:02;;;;;;;24.07;8.03;;;20.70;90.20;;;;;;4991996;28;20186;-69
2023/11/28 05:39:29;;;;;;;16.33;7.03;;;20.80;90.40;;;;;;4991755;28;20178;-69
2023/11/28 05:41:57;;;;;;;16.27;7.63;;;20.80;90.00;;;;;;4991272;28;20189;-69
2023/11/28 05:44:24;;;;;;;16.97;6.40;;;20.80;90.10;;;;;;4986804;28;20182;-67
2023/11/28 05:46:51;;;;;;;16.03;6.73;;;20.80;89.80;;;;;;4990978;28;20212;-69
2023/11/28 05:49:18;;;;;;;22.20;7.50;;;20.80;89.60;;;;;;4992404;28;20198;-66
2023/11/28 05:51:46;;;;;;;12.20;6.87;;;20.90;89.60;;;;;;4989878;28;20685;-68
2023/11/28 05:54:13;;;;;;;19.27;7.43;;;20.90;89.30;;;;;;4990340;28;20193;-70
2023/11/28 05:56:42;;;;;;;20.47;7.07;;;21.00;89.30;;;;;;4987371;28;20178;-69
2023/11/28 05:59:10;;;;;;;18.07;7.10;;;21.00;89.20;;;;;;4987818;28;21368;-71
2023/11/28 06:01:59;;;;;;;18.93;6.43;;;21.10;89.20;;;;;;4991432;28;20600;-71
2023/11/28 06:04:27;;;;;;;18.27;5.97;;;21.10;88.70;;;;;;4988889;28;20225;-69
2023/11/28 06:06:54;;;;;;;15.30;6.80;;;21.20;88.80;;;;;;4987055;28;20631;-68
2023/11/28 06:09:23;;;;;;;20.57;6.70;;;21.10;88.60;;;;;;4987299;28;20201;-70
2023/11/28 06:11:52;;;;;;;21.07;6.13;;;21.10;88.30;;;;;;4992790;28;20189;-70
2023/11/28 06:14:22;;;;;;;21.97;6.07;;;21.10;88.70;;;;;;4994366;28;20187;-71
2023/11/28 06:16:50;;;;;;;23.90;6.20;;;21.10;88.70;;;;;;4995090;28;20185;-69
2023/11/28 06:19:18;;;;;;;16.77;5.77;;;21.00;88.50;;;;;;4992167;28;20220;-69
2023/11/28 06:21:48;;;;;;;14.83;5.63;;;21.00;88.80;;;;;;4993724;28;20182;-71
2023/11/28 06:24:15;;;;;;;16.17;6.00;;;21.00;88.80;;;;;;4995588;28;20707;-72
2023/11/28 06:26:42;;;;;;;21.73;6.50;;;21.00;88.80;;;;;;4995059;28;20201;-72
2023/11/28 06:29:10;;;;;;;16.63;6.20;;;20.90;88.90;;;;;;4992008;28;20276;-69
2023/11/28 06:31:37;;;;;;;18.80;6.17;;;20.90;89.00;;;;;;4995484;28;20202;-71
2023/11/28 06:34:05;;;;;;;18.43;6.40;;;21.00;89.10;;;;;;4992803;28;20190;-69
2023/11/28 06:36:34;;;;;;;19.60;6.60;;;21.00;89.10;;;;;;4995100;28;20236;-70
2023/11/28 06:39:02;;;;;;;20.47;6.47;;;20.90;88.80;;;;;;4994628;28;20208;-71
2023/11/28 06:41:29;;;;;;;21.93;6.43;;;21.00;89.00;;;;;;4995309;28;20228;-71
2023/11/28 06:43:56;;;;;;;20.00;6.63;;;21.00;89.10;;;;;;4995605;28;20189;-69
2023/11/28 06:46:26;;;;;;;17.43;6.37;;;21.10;88.90;;;;;;4994335;28;20209;-71
2023/11/28 06:48:54;;;;;;;17.03;6.50;;;21.10;88.70;;;;;;4992199;28;20178;-71
2023/11/28 06:51:22;;;;;;;18.53;6.43;;;21.20;88.70;;;;;;4995175;28;20189;-69
2023/11/28 06:53:49;;;;;;;17.50;6.83;;;21.30;88.60;;;;;;4995009;28;20217;-72
2023/11/28 06:56:17;;;;;;;22.30;6.93;;;21.30;88.30;;;;;;4993065;28;20829;-73
2023/11/28 06:58:44;;;;;;;18.43;6.60;;;21.30;88.30;;;;;;4995236;28;20174;-68
2023/11/28 07:01:11;;;;;;;21.20;7.33;;;21.30;88.30;;;;;;4993239;28;20546;-70
2023/11/28 07:03:42;;;;;;;17.20;6.43;;;21.30;88.40;;;;;;4993560;28;20186;-70
2023/11/28 07:06:10;;;;;;;18.53;6.27;;;21.20;88.60;;;;;;4991956;28;20641;-69
2023/11/28 07:08:38;;;;;;;25.27;6.33;;;21.10;88.60;;;;;;4994297;28;20233;-67
2023/11/28 07:11:05;;;;;;;22.57;6.97;;;21.10;88.60;;;;;;4989257;28;20528;-65
2023/11/28 07:13:33;;;;;;;28.43;7.40;;;21.10;88.90;;;;;;4992317;28;20182;-71
2023/11/28 07:16:01;;;;;;;20.07;7.13;;;21.00;88.90;;;;;;4997181;28;20616;-69
2023/11/28 07:18:28;;;;;;;22.17;7.37;;;21.10;89.00;;;;;;4994755;28;20174;-71
2023/11/28 07:20:56;;;;;;;20.47;6.13;;;21.10;89.10;;;;;;4994836;28;20258;-71
2023/11/28 07:23:23;;;;;;;22.13;7.67;;;21.10;89.00;;;;;;4992525;28;20179;-72
2023/11/28 07:25:50;;;;;;;20.17;6.93;;;21.10;88.90;;;;;;4995186;28;20275;-71
2023/11/28 07:28:17;;;;;;;23.67;7.23;;;21.10;89.10;;;;;;4994816;28;20213;-69
2023/11/28 07:30:45;;;;;;;20.77;6.67;;;21.10;89.10;;;;;;4994806;28;20261;-70
2023/11/28 07:33:13;;;;;;;21.57;7.50;;;21.20;89.20;;;;;;4993181;28;20186;-70
2023/11/28 07:35:40;;;;;;;20.77;7.70;;;21.20;89.10;;;;;;4992250;28;20204;-68
2023/11/28 07:38:08;;;;;;;22.73;7.93;;;21.20;89.10;;;;;;4995076;28;20236;-69
2023/11/28 07:40:37;;;;;;;23.00;7.93;;;21.20;89.20;;;;;;4993772;28;20581;-73
2023/11/28 07:43:05;;;;;;;22.30;7.40;;;21.20;89.00;;;;;;4990672;28;20625;-74
2023/11/28 07:45:33;;;;;;;29.73;8.27;;;21.20;89.10;;;;;;4990718;28;20183;-71
2023/11/28 07:48:00;;;;;;;25.40;7.37;;;21.20;89.10;;;;;;4995246;28;20217;-71
2023/11/28 07:50:27;;;;;;;24.43;7.50;;;21.20;89.30;;;;;;4992765;28;20240;-71
2023/11/28 07:52:55;;;;;;;25.23;7.47;;;21.20;89.20;;;;;;4982799;28;20182;-70
2023/11/28 07:55:22;;;;;;;23.20;7.83;;;21.20;89.30;;;;;;4980873;28;20174;-69
2023/11/28 07:57:49;;;;;;;22.63;6.97;;;21.20;89.40;;;;;;4990950;28;20186;-71
2023/11/28 08:00:20;;;;;;;22.43;7.67;;;21.10;89.30;;;;;;4990297;28;20241;-75
2023/11/28 08:02:48;;;;;;;29.57;7.90;;;21.10;89.30;;;;;;4992745;28;20340;-69
2023/11/28 08:05:15;;;;;;;31.93;8.70;;;21.10;89.60;;;;;;4984024;28;20191;-70
2023/11/28 08:07:42;;;;;;;22.03;8.73;;;21.00;89.60;;;;;;4985446;28;20201;-69
2023/11/28 08:10:14;;;;;;;20.97;9.07;;;21.10;89.80;;;;;;4994449;28;20261;-70
2023/11/28 08:12:41;;;;;;;27.03;11.00;;;21.00;90.00;;;;;;4992837;28;20182;-70
2023/11/28 08:15:09;;;;;;;22.20;9.70;;;21.00;90.20;;;;;;4993103;28;20632;-69
2023/11/28 08:17:36;;;;;;;19.87;9.73;;;21.00;90.60;;;;;;4993480;28;20592;-70
2023/11/28 08:20:04;;;;;;;25.33;12.40;;;20.90;91.10;;;;;;4983875;28;20178;-66
2023/11/28 08:22:31;;;;;;;28.50;13.37;;;20.90;91.40;;;;;;4994887;28;20181;-67
2023/11/28 08:25:00;;;;;;;25.43;13.67;;;20.80;91.70;;;;;;4989218;28;20217;-67
2023/11/28 08:27:27;;;;;;;19.50;13.23;;;20.80;92.10;;;;;;4989902;28;20632;-68
2023/11/28 08:29:55;;;;;;;31.40;15.73;;;20.70;92.30;;;;;;4980696;28;20182;-70
2023/11/28 08:32:22;;;;;;;30.40;15.43;;;20.70;92.50;;;;;;4986229;28;20193;-68
2023/11/28 08:34:50;;;;;;;38.60;17.00;;;20.60;92.60;;;;;;4987126;28;20240;-64
2023/11/28 08:37:17;;;;;;;32.47;17.80;;;20.70;92.70;;;;;;4988899;28;20273;-68
2023/11/28 08:39:44;;;;;;;31.83;19.57;;;20.70;92.80;;;;;;4992566;28;20640;-70
2023/11/28 08:42:12;;;;;;;38.90;20.40;;;20.60;92.90;;;;;;4991224;28;20555;-69
2023/11/28 08:44:40;;;;;;;43.80;22.40;;;20.60;92.90;;;;;;4967775;28;20195;-67
2023/11/28 08:47:07;;;;;;;36.93;22.47;;;20.60;93.10;;;;;;4986213;28;20213;-69
2023/11/28 08:49:34;;;;;;;31.83;22.67;;;20.70;93.20;;;;;;4991227;28;20208;-69
2023/11/28 08:52:02;;;;;;;35.00;23.97;;;20.70;93.30;;;;;;4988999;28;20186;-67
2023/11/28 08:54:29;;;;;;;29.93;26.87;;;20.60;93.40;;;;;;4987825;28;20252;-69
2023/11/28 08:56:57;;;;;;;32.30;28.97;;;20.50;93.40;;;;;;4992346;28;20190;-70
2023/11/28 08:59:24;;;;;;;33.17;30.17;;;20.40;93.60;;;;;;4976166;28;20188;-70
2023/11/28 09:01:51;;;;;;;35.77;32.17;;;20.40;93.60;;;;;;4985081;28;20185;-71
2023/11/28 09:04:19;;;;;;;37.20;33.20;;;20.40;93.90;;;;;;4991910;28;20209;-68
2023/11/28 09:06:46;;;;;;;39.27;35.47;;;20.30;93.90;;;;;;4991755;28;20209;-69
2023/11/28 09:09:14;;;;;;;42.80;36.83;;;20.40;94.00;;;;;;4972381;28;20261;-68
2023/11/28 09:11:41;;;;;;;45.17;40.07;;;20.40;94.10;;;;;;4991536;28;20182;-70
2023/11/28 09:14:08;;;;;;;47.13;41.40;;;20.40;94.10;;;;;;4990934;28;20185;-68
2023/11/28 09:16:35;;;;;;;48.97;43.70;;;20.40;94.10;;;;;;4993295;28;20201;-71
2023/11/28 09:19:03;;;;;;;48.47;43.37;;;20.40;94.20;;;;;;4984939;28;20684;-67
2023/11/28 09:21:30;;;;;;;50.87;45.43;;;20.40;94.20;;;;;;4988170;28;20182;-68
2023/11/28 09:23:57;;;;;;;48.90;43.67;;;20.40;94.20;;;;;;4992884;28;20186;-66
2023/11/28 09:26:26;;;;;;;49.23;44.33;;;20.40;94.20;;;;;;4988558;28;20560;-67
2023/11/28 09:28:54;;;;;;;52.53;46.67;;;20.40;94.20;;;;;;4985766;28;20578;-66
2023/11/28 09:31:26;;;;;;;48.47;43.67;;;20.40;94.10;;;;;;4987718;28;20210;-69
2023/11/28 09:33:58;;;;;;;51.63;45.00;;;20.50;94.20;;;;;;4976865;28;20664;-66
2023/11/28 09:36:25;;;;;;;55.13;47.17;;;20.50;94.10;;;;;;4988806;28;20213;-69
2023/11/28 09:38:54;;;;;;;52.93;48.27;;;20.50;94.10;;;;;;4982981;28;20576;-68
2023/11/28 09:41:25;;;;;;;53.27;47.83;;;20.50;94.00;;;;;;4992927;28;20633;-66
2023/11/28 09:43:53;;;;;;;55.73;50.50;;;20.50;94.00;;;;;;4989951;28;20179;-65
2023/11/28 09:46:21;;;;;;;55.00;49.50;;;20.50;93.90;;;;;;4981548;28;20274;-66
2023/11/28 09:48:53;;;;;;;61.80;55.23;;;20.50;93.90;;;;;;4988050;28;20260;-69
2023/11/28 09:51:27;;;;;;;63.97;57.77;;;20.60;93.90;;;;;;4992836;28;20629;-68
2023/11/28 09:53:58;;;;;;;64.60;58.33;;;20.60;93.90;;;;;;4991368;28;20200;-69
2023/11/28 09:56:26;;;;;;;63.67;58.20;;;20.60;93.80;;;;;;4985324;28;20173;-68
2023/11/28 09:58:58;;;;;;;64.47;57.40;;;20.50;93.70;;;;;;4991675;28;20206;-68
2023/11/28 10:01:26;;;;;;;64.03;57.67;;;20.50;93.70;;;;;;4981212;28;20194;-72
2023/11/28 10:03:54;;;;;;;63.13;56.87;;;20.60;93.60;;;;;;4989290;28;20186;-69
2023/11/28 10:06:22;;;;;;;60.67;54.70;;;20.60;93.50;;;;;;4990012;28;20178;-69
2023/11/28 10:08:50;;;;;;;57.00;51.43;;;20.70;93.50;;;;;;4991637;28;20582;-72
2023/11/28 10:11:20;;;;;;;57.00;50.83;;;20.70;93.20;;;;;;4991878;28;20225;-66
2023/11/28 10:13:47;;;;;;;53.17;48.40;;;20.70;93.00;;;;;;4991244;28;20194;-68
2023/11/28 10:16:15;;;;;;;51.13;46.47;;;20.80;93.00;;;;;;4992418;28;20247;-70
2023/11/28 10:18:47;;;;;;;50.27;45.30;;;20.80;92.70;;;;;;4992759;28;20186;-72
2023/11/28 10:21:16;;;;;;;49.13;44.03;;;20.80;92.70;;;;;;4993121;28;20186;-70
2023/11/28 10:23:46;;;;;;;54.10;48.53;;;20.80;92.60;;;;;;4993054;28;20185;-73
2023/11/28 10:26:13;;;;;;;45.93;41.83;;;20.80;92.60;;;;;;4990865;28;20228;-70
2023/11/28 10:28:41;;;;;;;51.63;46.23;;;20.80;92.40;;;;;;4992540;28;20205;-70
2023/11/28 10:31:08;;;;;;;48.97;43.97;;;20.80;92.40;;;;;;4991169;28;20189;-71
2023/11/28 10:33:36;;;;;;;47.07;42.40;;;20.80;92.30;;;;;;4992372;28;20664;-72
2023/11/28 10:36:03;;;;;;;47.83;41.07;;;20.80;92.20;;;;;;4985920;28;20187;-69
2023/11/28 10:38:34;;;;;;;46.43;41.07;;;20.90;92.20;;;;;;4990307;28;20177;-68
2023/11/28 10:41:02;;;;;;;49.40;38.53;;;20.80;92.00;;;;;;4991180;28;20185;-67
2023/11/28 10:43:33;;;;;;;40.90;33.83;;;20.90;91.80;;;;;;4990400;28;20183;-71
2023/11/28 10:46:01;;;;;;;43.23;37.67;;;20.90;91.70;;;;;;4988253;28;20186;-71
2023/11/28 10:48:29;;;;;;;52.03;37.97;;;21.00;91.70;;;;;;4982972;28;20228;-70
2023/11/28 10:50:58;;;;;;;41.53;37.30;;;21.00;91.80;;;;;;4981790;28;20175;-71
2023/11/28 10:53:26;;;;;;;46.47;41.37;;;21.00;91.80;;;;;;4983798;28;20179;-70
2023/11/28 10:55:54;;;;;;;46.87;41.27;;;21.00;92.00;;;;;;4978933;28;20187;-71
2023/11/28 10:58:22;;;;;;;47.23;40.60;;;20.90;91.90;;;;;;4993392;28;20244;-71
2023/11/28 11:01:01;;;;;;;41.17;37.00;;;21.00;91.90;;;;;;4995506;28;20599;-76
2023/11/28 11:03:31;;;;;;;39.53;35.43;;;20.90;91.90;;;;;;4983513;28;20606;-73
2023/11/28 11:05:58;;;;;;;41.63;37.17;;;21.00;91.80;;;;;;4985938;28;20261;-71
2023/11/28 11:08:26;;;;;;;39.20;35.20;;;20.90;91.80;;;;;;4996465;28;20692;-71
2023/11/28 11:10:54;;;;;;;42.00;37.63;;;21.00;91.70;;;;;;4984727;28;20657;-71
2023/11/28 11:13:52;;;;;;;41.53;37.47;;;21.00;91.70;;;;;;4992547;28;20213;-69
2023/11/28 11:16:31;;;;;;;43.80;38.13;;;21.00;91.70;;;;;;4987000;28;20537;-72
2023/11/28 11:19:00;;;;;;;45.87;39.33;;;21.00;91.70;;;;;;4995301;28;20264;-72
2023/11/28 11:21:50;;;;;;;43.60;37.27;;;21.00;91.90;;;;;;4982990;28;20182;-72
2023/11/28 11:24:21;;;;;;;44.73;36.87;;;21.00;91.80;;;;;;4979997;28;20357;-71
2023/11/28 11:26:54;;;;;;;42.70;37.30;;;21.00;91.70;;;;;;4985355;28;20189;-68
2023/11/28 11:29:27;;;;;;;41.43;34.20;;;21.10;91.70;;;;;;4996141;28;20182;-72
2023/11/28 11:31:58;;;;;;;39.70;35.43;;;21.10;91.60;;;;;;4995316;28;20186;-71
2023/11/28 11:34:38;;;;;;;41.70;36.37;;;21.10;91.60;;;;;;4985883;28;20182;-71
2023/11/28 11:37:19;;;;;;;41.60;36.97;;;21.10;91.70;;;;;;4990395;28;20593;-72
2023/11/28 11:39:47;;;;;;;40.97;33.87;;;21.10;91.70;;;;;;4991572;28;20197;-72
2023/11/28 11:42:19;;;;;;;42.30;34.27;;;21.10;91.70;;;;;;4986111;28;20633;-71
2023/11/28 11:44:51;;;;;;;44.00;35.37;;;21.10;91.70;;;;;;4995652;28;20178;-73
2023/11/28 11:47:36;;;;;;;38.10;34.00;;;21.10;91.70;;;;;;4988129;28;20209;-73
2023/11/28 11:50:06;;;;;;;37.57;33.77;;;21.10;91.60;;;;;;4983919;28;20194;-72
2023/11/28 11:52:34;;;;;;;41.10;34.10;;;21.10;91.60;;;;;;4994456;28;20193;-71
2023/11/28 11:55:18;;;;;;;35.60;31.87;;;21.10;91.50;;;;;;4995093;28;20186;-68
2023/11/28 11:57:46;;;;;;;39.63;32.33;;;21.20;91.30;;;;;;4995172;28;20213;-69
2023/11/28 12:00:16;;;;;;;40.70;34.27;;;21.20;91.20;;;;;;4995676;28;20190;-66
2023/11/28 12:02:44;;;;;;;35.67;31.63;;;21.20;91.30;;;;;;4994651;28;20189;-67
2023/11/28 12:05:13;;;;;;;37.33;32.00;;;21.20;91.00;;;;;;4994827;28;20190;-67
2023/11/28 12:07:41;;;;;;;40.20;32.67;;;21.20;91.10;;;;;;4992674;28;20205;-67
2023/11/28 12:10:11;;;;;;;41.90;31.37;;;21.20;91.20;;;;;;4994318;28;20695;-67
2023/11/28 12:12:41;;;;;;;36.37;32.63;;;21.20;91.20;;;;;;4994837;28;20178;-71
2023/11/28 12:15:12;;;;;;;48.33;31.30;;;21.20;91.20;;;;;;4988312;28;20183;-66
2023/11/28 12:17:41;;;;;;;47.40;33.57;;;21.20;91.20;;;;;;4994783;28;20178;-70
2023/11/28 12:20:09;;;;;;;39.80;32.73;;;21.20;91.30;;;;;;4994187;28;20265;-65
2023/11/28 12:22:37;;;;;;;41.23;33.57;;;21.20;91.40;;;;;;4976298;28;20534;-67
2023/11/28 12:25:04;;;;;;;47.30;36.23;;;21.20;91.40;;;;;;4989731;28;20690;-73
2023/11/28 12:27:33;;;;;;;42.83;38.43;;;21.20;91.50;;;;;;4995007;28;20214;-71
2023/11/28 12:30:03;;;;;;;46.80;38.07;;;21.20;91.50;;;;;;4988638;28;20197;-74
2023/11/28 12:32:31;;;;;;;48.53;38.20;;;21.20;91.70;;;;;;4994069;28;20198;-71
2023/11/28 12:34:58;;;;;;;43.70;39.07;;;21.20;91.70;;;;;;4981460;28;20653;-72
2023/11/28 12:37:29;;;;;;;43.53;39.30;;;21.20;91.70;;;;;;4992244;28;20708;-71
2023/11/28 12:39:56;;;;;;;54.47;38.73;;;21.20;91.70;;;;;;4988487;28;20187;-71
2023/11/28 12:42:27;;;;;;;54.80;45.17;;;21.10;91.90;;;;;;4992391;28;20226;-67
2023/11/28 12:44:57;;;;;;;54.43;49.17;;;21.10;92.00;;;;;;4993968;28;20256;-71
2023/11/28 12:47:26;;;;;;;55.30;48.73;;;21.00;92.30;;;;;;4993788;28;20190;-70